Time;durP1;ratioP1;P1;durP2;ratioP2;P2;SDS_P1;SDS_P2;PMS_P1;PMS_P2;Temp;Humidity;BMP_temperature;BMP_pressure;BME280_temperature;BME280_humidity;BME280_pressure;Samples;Min_cycle;Max_cycle;Signal;HPM_P1;HPM_P2
2023/12/28 00:00:47;;;;;;;0.25;0.25;;;9.00;1.00;;;;;;5107274;28;20119;-86
2023/12/28 00:03:13;;;;;;;0.63;0.28;;;9.10;1.00;;;;;;5108034;28;20386;-87
2023/12/28 00:05:39;;;;;;;0.17;0.17;;;9.10;1.00;;;;;;5107276;28;20038;-86
2023/12/28 00:08:04;;;;;;;0.00;0.00;;;9.20;1.00;;;;;;5071864;28;20050;-86
2023/12/28 00:10:30;;;;;;;0.05;0.05;;;9.30;1.00;;;;;;5105905;28;20050;-86
2023/12/28 00:12:56;;;;;;;0.15;0.15;;;9.30;99.90;;;;;;5106100;28;20062;-86
2023/12/28 00:15:22;;;;;;;0.73;0.68;;;9.30;99.90;;;;;;5106673;28;20035;-86
2023/12/28 00:17:47;;;;;;;0.35;0.35;;;9.30;1.00;;;;;;5105930;28;20116;-86
2023/12/28 00:20:13;;;;;;;0.38;0.32;;;9.30;1.00;;;;;;5106335;28;20032;-87
2023/12/28 00:22:38;;;;;;;0.40;0.40;;;9.30;1.00;;;;;;5106526;28;20136;-86
2023/12/28 00:25:05;;;;;;;0.00;0.00;;;9.30;1.00;;;;;;5106789;28;20092;-86
2023/12/28 00:27:31;;;;;;;0.10;0.10;;;9.30;1.00;;;;;;5105670;28;20047;-86
2023/12/28 00:29:56;;;;;;;0.10;0.10;;;9.30;99.90;;;;;;5106046;28;20051;-86
2023/12/28 00:32:22;;;;;;;0.17;0.10;;;9.30;1.00;;;;;;5105753;28;20032;-87
2023/12/28 00:34:47;;;;;;;0.38;0.38;;;9.30;1.00;;;;;;5105535;28;20421;-87
2023/12/28 00:37:13;;;;;;;0.47;0.32;;;9.30;1.00;;;;;;5106308;28;20048;-87
2023/12/28 00:39:40;;;;;;;0.00;0.00;;;9.30;1.00;;;;;;5106039;28;20032;-87
2023/12/28 00:42:06;;;;;;;0.80;0.55;;;9.30;1.00;;;;;;5105011;28;20086;-88
2023/12/28 00:44:32;;;;;;;0.82;0.82;;;9.30;1.00;;;;;;5105002;28;20067;-88
2023/12/28 00:46:57;;;;;;;0.00;0.00;;;9.40;1.00;;;;;;5105337;28;20469;-88
2023/12/28 00:49:23;;;;;;;0.03;0.03;;;9.40;1.00;;;;;;5105468;28;20043;-88
2023/12/28 00:51:48;;;;;;;1.75;0.77;;;9.40;1.00;;;;;;5105240;28;20409;-88
2023/12/28 00:54:14;;;;;;;0.22;0.22;;;9.40;1.00;;;;;;5105313;28;20048;-88
2023/12/28 00:56:39;;;;;;;0.00;0.00;;;9.40;1.00;;;;;;5105559;28;20493;-88
2023/12/28 00:59:05;;;;;;;0.13;0.13;;;9.40;1.00;;;;;;5105103;28;20481;-88
2023/12/28 01:01:31;;;;;;;2.63;0.90;;;9.40;1.00;;;;;;5104366;28;20103;-88
2023/12/28 01:03:56;;;;;;;0.03;0.03;;;9.40;1.00;;;;;;5105325;28;20393;-88
2023/12/28 01:06:22;;;;;;;0.30;0.30;;;9.40;1.00;;;;;;5104990;28;20052;-87
2023/12/28 01:08:48;;;;;;;6.22;0.88;;;9.40;1.00;;;;;;5104949;28;20454;-87
2023/12/28 01:11:13;;;;;;;0.17;0.17;;;9.30;1.00;;;;;;5105484;28;20039;-88
2023/12/28 01:13:39;;;;;;;0.32;0.32;;;9.30;1.00;;;;;;5104837;28;20135;-87
2023/12/28 01:16:05;;;;;;;0.10;0.10;;;9.10;1.00;;;;;;5091395;28;20043;-88
2023/12/28 01:18:31;;;;;;;0.65;0.52;;;9.00;24.90;;;;;;5085993;28;20050;-87
2023/12/28 01:20:56;;;;;;;1.25;0.93;;;8.90;95.00;;;;;;5086207;28;20039;-88
2023/12/28 01:23:22;;;;;;;0.17;0.15;;;8.80;99.90;;;;;;5104379;28;20043;-87
2023/12/28 01:25:47;;;;;;;0.47;0.35;;;8.80;99.90;;;;;;5104135;28;20175;-88
2023/12/28 01:28:13;;;;;;;0.28;0.28;;;8.80;99.90;;;;;;5104411;28;20052;-88
2023/12/28 01:30:38;;;;;;;1.65;0.73;;;8.80;99.90;;;;;;5104495;28;20039;-88
2023/12/28 01:33:04;;;;;;;0.40;0.40;;;8.70;99.90;;;;;;5086134;28;20478;-87
2023/12/28 01:35:30;;;;;;;0.10;0.10;;;8.70;99.90;;;;;;5103815;28;20040;-87
2023/12/28 01:37:57;;;;;;;0.45;0.30;;;8.70;99.90;;;;;;5104286;28;20086;-88
2023/12/28 01:40:23;;;;;;;0.08;0.08;;;8.70;1.00;;;;;;5104134;28;20413;-88
2023/12/28 01:42:48;;;;;;;0.00;0.00;;;8.70;1.00;;;;;;5104402;28;20043;-88
2023/12/28 01:45:14;;;;;;;0.10;0.10;;;8.70;1.00;;;;;;5085630;28;20485;-88
2023/12/28 01:47:40;;;;;;;0.00;0.00;;;8.60;13.80;;;;;;5104155;28;20052;-88
2023/12/28 01:50:07;;;;;;;0.00;0.00;;;8.60;45.70;;;;;;5104225;28;20100;-88
2023/12/28 01:52:33;;;;;;;0.35;0.35;;;8.60;99.90;;;;;;5104024;28;20423;-88
2023/12/28 01:54:58;;;;;;;0.32;0.30;;;8.50;99.90;;;;;;5103763;28;20052;-88
2023/12/28 01:57:24;;;;;;;0.10;0.10;;;8.60;99.90;;;;;;5069195;28;20055;-88
2023/12/28 01:59:52;;;;;;;0.00;0.00;;;8.60;99.90;;;;;;5103803;28;20032;-88
2023/12/28 02:02:18;;;;;;;0.30;0.30;;;8.60;99.90;;;;;;5103694;28;20044;-88
2023/12/28 02:04:45;;;;;;;0.10;0.10;;;8.60;99.90;;;;;;5103693;28;20078;-88
2023/12/28 02:07:12;;;;;;;0.38;0.38;;;8.60;99.90;;;;;;5103599;28;20515;-88
2023/12/28 02:09:37;;;;;;;0.08;0.08;;;8.50;99.90;;;;;;5103732;28;20051;-88
2023/12/28 02:12:03;;;;;;;0.03;0.03;;;8.60;99.90;;;;;;5103620;28;20047;-88
2023/12/28 02:14:29;;;;;;;0.25;0.20;;;8.50;99.90;;;;;;5091474;28;20055;-88
2023/12/28 02:17:12;;;;;;;0.80;0.40;;;8.60;1.00;;;;;;5084879;28;20043;-88
2023/12/28 02:19:46;;;;;;;2.53;0.38;;;8.60;1.00;;;;;;5103508;28;20043;-88
2023/12/28 02:22:15;;;;;;;1.02;0.57;;;8.70;1.00;;;;;;5103554;28;20051;-88
2023/12/28 02:25:06;;;;;;;1.35;0.90;;;8.70;1.00;;;;;;5103439;28;20198;-88
2023/12/28 02:27:51;;;;;;;1.55;0.73;;;8.70;99.90;;;;;;5103760;28;20086;-88
2023/12/28 02:30:21;;;;;;;1.17;0.55;;;8.80;99.90;;;;;;5094712;28;20586;-88
2023/12/28 02:33:17;;;;;;;0.55;0.55;;;8.80;99.90;;;;;;5089569;28;20338;-88
2023/12/28 02:36:05;;;;;;;1.33;1.23;;;8.90;99.90;;;;;;5095525;28;20501;-87
2023/12/28 02:38:35;;;;;;;0.00;0.00;;;9.00;99.90;;;;;;5103260;28;20054;-87
2023/12/28 02:41:03;;;;;;;0.47;0.40;;;9.00;99.80;;;;;;5069443;28;20113;-87
2023/12/28 02:43:29;;;;;;;1.45;0.63;;;9.00;97.40;;;;;;5102492;28;20526;-87
2023/12/28 02:45:54;;;;;;;0.68;0.45;;;9.10;92.00;;;;;;5103107;28;20043;-87
2023/12/28 02:48:20;;;;;;;4.38;2.40;;;9.10;65.00;;;;;;5102958;28;20077;-87
2023/12/28 02:50:46;;;;;;;0.10;0.10;;;9.20;1.00;;;;;;5102869;28;20044;-88
2023/12/28 02:53:13;;;;;;;12.57;0.82;;;9.20;1.00;;;;;;5084569;28;20554;-87
2023/12/28 02:55:39;;;;;;;0.10;0.10;;;9.30;1.00;;;;;;5102164;28;20051;-87
2023/12/28 02:58:05;;;;;;;0.25;0.25;;;9.20;1.00;;;;;;5102511;28;20058;-87
2023/12/28 03:00:31;;;;;;;0.43;0.43;;;9.50;99.90;;;;;;5102452;28;20045;-88
2023/12/28 03:02:56;;;;;;;0.40;0.40;;;9.60;99.90;;;;;;5102769;28;20055;-88
2023/12/28 03:05:22;;;;;;;0.00;0.00;;;9.60;99.90;;;;;;5103003;28;20595;-87
2023/12/28 03:07:48;;;;;;;1.27;0.75;;;9.70;99.90;;;;;;5102711;28;20057;-87
2023/12/28 03:10:14;;;;;;;2.15;1.10;;;9.80;99.90;;;;;;5103416;28;20067;-87
2023/12/28 03:12:40;;;;;;;0.08;0.08;;;9.80;99.90;;;;;;5103435;28;20043;-88
2023/12/28 03:15:06;;;;;;;0.20;0.20;;;9.90;39.40;;;;;;5103211;28;20071;-88
2023/12/28 03:17:32;;;;;;;0.10;0.10;;;9.90;1.00;;;;;;5102652;28;20483;-87
2023/12/28 03:20:01;;;;;;;0.20;0.20;;;10.00;1.00;;;;;;5102672;28;20048;-87
2023/12/28 03:22:26;;;;;;;0.80;0.80;;;10.00;1.00;;;;;;5103097;28;20420;-87
2023/12/28 03:24:52;;;;;;;0.20;0.20;;;10.00;1.00;;;;;;5102856;28;20075;-87
2023/12/28 03:27:17;;;;;;;11.90;0.60;;;10.00;1.00;;;;;;5103020;28;20042;-87
2023/12/28 03:29:43;;;;;;;0.52;0.20;;;10.00;1.00;;;;;;5102420;28;20040;-87
2023/12/28 03:32:09;;;;;;;0.28;0.28;;;10.10;1.00;;;;;;5102707;28;20077;-87
2023/12/28 03:34:35;;;;;;;4.50;1.92;;;10.10;99.90;;;;;;5102588;28;20050;-88
2023/12/28 03:37:01;;;;;;;0.00;0.00;;;10.10;1.00;;;;;;5102169;28;20105;-87
2023/12/28 03:39:26;;;;;;;9.95;1.00;;;10.10;1.00;;;;;;5102254;28;20046;-87
2023/12/28 03:41:53;;;;;;;1.40;0.40;;;10.10;99.90;;;;;;5102472;28;20443;-87
2023/12/28 03:44:20;;;;;;;0.63;0.50;;;10.90;99.90;;;;;;5102985;28;20063;-87
2023/12/28 03:46:47;;;;;;;0.20;0.20;;;10.20;99.90;;;;;;5102720;28;20104;-88
2023/12/28 03:49:18;;;;;;;0.38;0.25;;;10.20;99.90;;;;;;5084511;28;20483;-87
2023/12/28 03:51:45;;;;;;;1.55;0.80;;;10.20;99.90;;;;;;5102848;28;20079;-87
2023/12/28 03:54:11;;;;;;;0.43;0.40;;;10.20;99.90;;;;;;5102416;28;20079;-88
2023/12/28 03:56:39;;;;;;;0.77;0.52;;;10.20;99.90;;;;;;5102812;28;20567;-87
2023/12/28 03:59:05;;;;;;;0.10;0.10;;;10.30;99.90;;;;;;5096119;28;20115;-87
2023/12/28 04:01:31;;;;;;;0.05;0.05;;;10.20;99.90;;;;;;5102357;28;20508;-87
2023/12/28 04:03:56;;;;;;;0.00;0.00;;;10.10;99.90;;;;;;5102317;28;20067;-88
2023/12/28 04:06:22;;;;;;;0.00;0.00;;;10.10;99.90;;;;;;5102494;28;20409;-87
2023/12/28 04:08:47;;;;;;;0.68;0.65;;;9.90;99.90;;;;;;5102726;28;20090;-87
2023/12/28 04:11:13;;;;;;;0.00;0.00;;;9.90;99.90;;;;;;5084188;28;20047;-87
2023/12/28 04:13:39;;;;;;;3.55;0.90;;;10.00;99.90;;;;;;5102353;28;20502;-87
2023/12/28 04:16:05;;;;;;;0.00;0.00;;;10.10;99.90;;;;;;5102413;28;20567;-87
2023/12/28 04:18:31;;;;;;;0.00;0.00;;;10.20;99.90;;;;;;5104232;28;20052;-88
2023/12/28 04:20:56;;;;;;;0.40;0.40;;;10.20;99.90;;;;;;5106053;28;20051;-87
2023/12/28 04:23:22;;;;;;;1.17;1.08;;;10.30;99.90;;;;;;5105898;28;20454;-87
2023/12/28 04:25:47;;;;;;;0.00;0.00;;;10.20;99.90;;;;;;5105780;28;20032;-87
2023/12/28 04:28:13;;;;;;;0.28;0.28;;;10.40;99.90;;;;;;5105537;28;20461;-87
2023/12/28 04:30:39;;;;;;;0.73;0.55;;;10.40;99.90;;;;;;5105813;28;20108;-87
2023/12/28 04:33:04;;;;;;;0.40;0.40;;;10.40;99.90;;;;;;5086806;28;20082;-87
2023/12/28 04:35:30;;;;;;;0.00;0.00;;;10.40;99.90;;;;;;5086725;28;20550;-87
2023/12/28 04:37:56;;;;;;;0.73;0.40;;;10.30;99.90;;;;;;5105943;28;20555;-87
2023/12/28 04:40:22;;;;;;;0.15;0.15;;;10.30;99.90;;;;;;5105472;28;20066;-87
2023/12/28 04:42:47;;;;;;;0.00;0.00;;;10.30;99.90;;;;;;5105596;28;20049;-87
2023/12/28 04:45:13;;;;;;;0.00;0.00;;;10.40;99.90;;;;;;5105267;28;20045;-87
2023/12/28 04:47:39;;;;;;;1.35;0.60;;;10.50;99.90;;;;;;5105146;28;20044;-87
2023/12/28 04:50:05;;;;;;;0.00;0.00;;;10.50;99.90;;;;;;5105213;28;20046;-87
2023/12/28 04:52:31;;;;;;;9.43;2.28;;;10.50;99.90;;;;;;5105128;28;20044;-87
2023/12/28 04:54:57;;;;;;;0.00;0.00;;;10.80;99.90;;;;;;5105048;28;20501;-87
2023/12/28 04:57:27;;;;;;;3.47;0.40;;;10.50;99.90;;;;;;5105186;28;21044;-87
2023/12/28 04:59:53;;;;;;;0.60;0.57;;;10.60;99.90;;;;;;5105076;28;20084;-87
2023/12/28 05:02:19;;;;;;;5.68;0.45;;;10.60;99.90;;;;;;5104953;28;20122;-87
2023/12/28 05:04:44;;;;;;;6.13;0.52;;;10.70;99.90;;;;;;5105678;28;20036;-87
2023/12/28 05:07:10;;;;;;;0.10;0.10;;;10.70;97.40;;;;;;5104792;28;20051;-87
2023/12/28 05:09:36;;;;;;;1.13;0.68;;;10.70;99.90;;;;;;5104967;28;20048;-87
2023/12/28 05:12:02;;;;;;;2.58;0.57;;;10.70;99.90;;;;;;5105220;28;20043;-87
2023/12/28 05:14:28;;;;;;;0.10;0.10;;;10.70;99.90;;;;;;5105019;28;20402;-87
2023/12/28 05:16:53;;;;;;;2.55;0.75;;;10.70;98.10;;;;;;5104609;28;20039;-87
2023/12/28 05:19:19;;;;;;;0.15;0.15;;;10.70;95.80;;;;;;5104599;28;20561;-87
2023/12/28 05:21:44;;;;;;;0.10;0.10;;;11.10;83.70;;;;;;5104802;28;20050;-87
2023/12/28 05:24:11;;;;;;;0.22;0.22;;;10.80;93.60;;;;;;5086766;28;20079;-87
2023/12/28 05:26:36;;;;;;;2.28;0.95;;;10.80;95.80;;;;;;5104473;28;20050;-87
2023/12/28 05:29:02;;;;;;;4.22;1.73;;;10.80;93.40;;;;;;5085883;28;20047;-87
2023/12/28 05:31:27;;;;;;;0.88;0.88;;;10.70;92.60;;;;;;5105040;28;20036;-87
2023/12/28 05:33:53;;;;;;;11.93;0.28;;;10.70;95.40;;;;;;5104536;28;20051;-87
2023/12/28 05:36:19;;;;;;;0.00;0.00;;;10.80;86.70;;;;;;5104370;28;20051;-87
2023/12/28 05:38:44;;;;;;;0.00;0.00;;;10.80;81.00;;;;;;5104698;28;20039;-87
2023/12/28 05:41:11;;;;;;;16.17;0.88;;;10.80;75.80;;;;;;5086688;28;20097;-87
2023/12/28 05:43:37;;;;;;;0.20;0.20;;;10.80;81.60;;;;;;5104661;28;20048;-87
2023/12/28 05:46:02;;;;;;;2.83;0.95;;;10.80;75.40;;;;;;5104154;28;20039;-87
2023/12/28 05:48:28;;;;;;;0.80;0.47;;;10.80;75.50;;;;;;5104210;28;20082;-87
2023/12/28 05:50:53;;;;;;;0.00;0.00;;;10.80;75.50;;;;;;5098241;28;20097;-87
2023/12/28 05:53:19;;;;;;;8.80;1.65;;;10.70;90.90;;;;;;5085651;28;20059;-87
2023/12/28 05:55:45;;;;;;;0.60;0.17;;;10.80;78.20;;;;;;5085754;28;20043;-87
2023/12/28 05:58:11;;;;;;;1.25;0.90;;;10.80;83.60;;;;;;5103608;28;20051;-87
2023/12/28 06:00:38;;;;;;;0.10;0.10;;;10.80;88.40;;;;;;5085423;28;20126;-87
2023/12/28 06:03:04;;;;;;;1.65;1.00;;;10.80;70.70;;;;;;5104071;28;20136;-87
2023/12/28 06:05:30;;;;;;;0.38;0.38;;;10.70;75.90;;;;;;5085996;28;20047;-87
2023/12/28 06:07:56;;;;;;;0.75;0.47;;;10.70;79.30;;;;;;5104337;28;20386;-87
2023/12/28 06:10:21;;;;;;;0.00;0.00;;;10.70;85.40;;;;;;5104351;28;20079;-87
2023/12/28 06:12:47;;;;;;;0.10;0.10;;;10.70;86.00;;;;;;5103846;28;20050;-87
2023/12/28 06:15:13;;;;;;;0.45;0.28;;;10.70;85.90;;;;;;5085393;28;20047;-87
2023/12/28 06:17:39;;;;;;;13.15;0.32;;;10.80;84.30;;;;;;5104450;28;20052;-87
2023/12/28 06:20:05;;;;;;;1.00;0.85;;;10.80;63.40;;;;;;5085542;28;20046;-87
2023/12/28 06:22:30;;;;;;;1.88;1.08;;;10.80;77.40;;;;;;5089208;28;20135;-87
2023/12/28 06:24:56;;;;;;;0.38;0.32;;;10.80;86.90;;;;;;5085651;28;20473;-87
2023/12/28 06:27:23;;;;;;;0.10;0.10;;;10.80;76.80;;;;;;5088448;28;20055;-87
2023/12/28 06:29:49;;;;;;;0.17;0.10;;;11.80;91.80;;;;;;5103339;28;20043;-87
2023/12/28 06:32:15;;;;;;;3.22;1.02;;;10.80;88.90;;;;;;5103781;28;20412;-87
2023/12/28 06:34:40;;;;;;;1.35;0.63;;;10.80;77.20;;;;;;5085372;28;20062;-87
2023/12/28 06:37:06;;;;;;;0.43;0.38;;;10.90;65.80;;;;;;5103115;28;20518;-87
2023/12/28 06:39:32;;;;;;;0.63;0.40;;;10.80;64.00;;;;;;5102970;28;20493;-87
2023/12/28 06:41:57;;;;;;;0.00;0.00;;;10.80;76.60;;;;;;5084482;28;20043;-87
2023/12/28 06:44:23;;;;;;;2.00;1.08;;;10.80;65.10;;;;;;5103301;28;20035;-87
2023/12/28 06:46:48;;;;;;;3.10;1.17;;;10.80;64.10;;;;;;5103453;28;20483;-88
2023/12/28 06:49:14;;;;;;;11.38;1.55;;;10.80;69.90;;;;;;5102600;28;20179;-87
2023/12/28 06:51:40;;;;;;;0.00;0.00;;;10.80;66.40;;;;;;5102832;28;20118;-87
2023/12/28 06:54:05;;;;;;;0.15;0.05;;;10.70;78.10;;;;;;5102747;28;20044;-87
2023/12/28 06:56:31;;;;;;;0.00;0.00;;;10.70;69.20;;;;;;5084767;28;20047;-87
2023/12/28 06:58:56;;;;;;;0.35;0.35;;;10.90;51.80;;;;;;5102641;28;20065;-87
2023/12/28 07:01:23;;;;;;;0.10;0.10;;;10.90;43.90;;;;;;5102248;28;20138;-87
2023/12/28 07:03:49;;;;;;;6.47;0.75;;;10.80;44.30;;;;;;5103429;28;20126;-87
2023/12/28 07:06:14;;;;;;;0.00;0.00;;;10.80;41.60;;;;;;5103015;28;20055;-87
2023/12/28 07:08:40;;;;;;;1.55;0.75;;;10.80;45.30;;;;;;5102731;28;20614;-87
2023/12/28 07:11:05;;;;;;;0.15;0.15;;;10.70;52.60;;;;;;5102606;28;20078;-87
2023/12/28 07:13:31;;;;;;;0.08;0.08;;;11.00;42.30;;;;;;5102239;28;20080;-87
2023/12/28 07:15:57;;;;;;;0.57;0.13;;;10.90;48.30;;;;;;5102146;28;20036;-87
2023/12/28 07:18:22;;;;;;;2.45;0.43;;;10.80;45.70;;;;;;5083361;28;20066;-87
2023/12/28 07:20:48;;;;;;;0.13;0.13;;;10.80;41.60;;;;;;5101837;28;20104;-87
2023/12/28 07:23:14;;;;;;;3.72;1.65;;;10.80;32.60;;;;;;5102319;28;20074;-87
2023/12/28 07:25:40;;;;;;;0.00;0.00;;;10.90;31.50;;;;;;5101813;28;20031;-87
2023/12/28 07:28:05;;;;;;;0.00;0.00;;;10.90;26.50;;;;;;5102128;28;20046;-87
2023/12/28 07:30:31;;;;;;;2.72;1.65;;;11.00;19.30;;;;;;5102246;28;20076;-87
2023/12/28 07:32:57;;;;;;;0.28;0.28;;;11.00;10.90;;;;;;5102311;28;20046;-87
2023/12/28 07:35:23;;;;;;;3.10;0.57;;;11.00;5.70;;;;;;5102101;28;20079;-87
2023/12/28 07:37:49;;;;;;;0.60;0.60;;;10.90;10.70;;;;;;5102110;28;20494;-87
2023/12/28 07:40:15;;;;;;;0.00;0.00;;;10.80;5.50;;;;;;5102144;28;20040;-87
2023/12/28 07:42:41;;;;;;;0.17;0.10;;;10.80;2.70;;;;;;5102236;28;20043;-87
2023/12/28 07:45:06;;;;;;;3.28;0.47;;;10.80;6.30;;;;;;5083649;28;20067;-87
2023/12/28 07:47:33;;;;;;;1.85;1.55;;;10.70;6.80;;;;;;5102251;28;20203;-87
2023/12/28 07:50:00;;;;;;;0.55;0.55;;;10.70;7.80;;;;;;5084025;28;20048;-87
2023/12/28 07:52:27;;;;;;;1.20;0.43;;;10.60;8.50;;;;;;5103780;28;20808;-87
2023/12/28 07:54:52;;;;;;;0.82;0.40;;;10.70;11.30;;;;;;5105403;28;20039;-87
2023/12/28 07:57:18;;;;;;;3.40;1.58;;;10.70;14.30;;;;;;5086513;28;20055;-87
2023/12/28 07:59:44;;;;;;;0.28;0.28;;;10.80;4.20;;;;;;5105270;28;20047;-87
2023/12/28 08:02:09;;;;;;;0.20;0.20;;;10.80;8.10;;;;;;5104470;28;20043;-88
2023/12/28 08:04:35;;;;;;;2.28;0.52;;;11.00;7.60;;;;;;5105074;28;20051;-88
2023/12/28 08:07:01;;;;;;;2.35;0.90;;;10.80;3.50;;;;;;5105024;28;20100;-88
2023/12/28 08:09:26;;;;;;;0.00;0.00;;;10.90;4.30;;;;;;5104819;28;20472;-88
2023/12/28 08:11:52;;;;;;;1.83;0.75;;;10.90;5.20;;;;;;5086784;28;20048;-88
2023/12/28 08:14:19;;;;;;;0.47;0.30;;;11.00;1.00;;;;;;5105004;28;20067;-88
2023/12/28 08:16:44;;;;;;;1.00;0.52;;;10.90;1.00;;;;;;5104929;28;20047;-88
2023/12/28 08:19:10;;;;;;;0.00;0.00;;;10.80;9.20;;;;;;5105027;28;20326;-88
2023/12/28 08:21:36;;;;;;;0.20;0.20;;;11.30;8.80;;;;;;5086005;28;20040;-87
2023/12/28 08:24:02;;;;;;;2.10;0.35;;;11.00;5.70;;;;;;5086487;28;20495;-88
2023/12/28 08:26:28;;;;;;;3.00;2.20;;;11.00;2.40;;;;;;5104364;28;20674;-88
2023/12/28 08:28:53;;;;;;;0.10;0.10;;;11.00;1.00;;;;;;5104417;28;20126;-87
2023/12/28 08:31:19;;;;;;;0.00;0.00;;;11.70;1.00;;;;;;5105151;28;20104;-87
2023/12/28 08:33:45;;;;;;;0.20;0.20;;;11.00;1.00;;;;;;5104427;28;20126;-88
2023/12/28 08:36:11;;;;;;;2.53;0.80;;;11.10;1.00;;;;;;5104492;28;20054;-88
2023/12/28 08:38:37;;;;;;;0.05;0.05;;;12.00;1.00;;;;;;5104478;28;20048;-88
2023/12/28 08:41:08;;;;;;;9.25;2.53;;;11.10;1.00;;;;;;5105083;28;20045;-88
2023/12/28 08:43:34;;;;;;;0.00;0.00;;;11.00;1.00;;;;;;5106911;28;20054;-88
2023/12/28 08:46:00;;;;;;;16.45;2.00;;;11.00;1.00;;;;;;5075638;28;20291;-88
2023/12/28 08:48:25;;;;;;;0.93;0.88;;;11.70;1.00;;;;;;5104193;28;20043;-88
2023/12/28 08:50:52;;;;;;;0.00;0.00;;;10.90;1.00;;;;;;5085694;28;20066;-88
2023/12/28 08:53:17;;;;;;;0.20;0.10;;;10.90;1.00;;;;;;5085222;28;20077;-88
2023/12/28 08:55:43;;;;;;;0.00;0.00;;;10.90;1.00;;;;;;5102775;28;20052;-88
2023/12/28 08:58:08;;;;;;;0.98;0.95;;;11.00;1.00;;;;;;5085539;28;20087;-88
2023/12/28 09:00:34;;;;;;;27.25;1.63;;;11.00;1.00;;;;;;5103808;28;20055;-88
2023/12/28 09:03:00;;;;;;;1.80;1.00;;;11.70;1.00;;;;;;5089982;28;20629;-88
2023/12/28 09:05:25;;;;;;;1.67;1.15;;;11.00;1.00;;;;;;5094930;28;20043;-87
2023/12/28 09:07:51;;;;;;;1.17;0.65;;;11.00;1.00;;;;;;5104324;28;20814;-88
2023/12/28 09:10:16;;;;;;;0.00;0.00;;;11.00;1.00;;;;;;5103585;28;20438;-87
2023/12/28 09:12:42;;;;;;;2.63;0.70;;;11.00;1.00;;;;;;5084971;28;20495;-87
2023/12/28 09:15:08;;;;;;;0.20;0.10;;;11.10;1.00;;;;;;5103674;28;20123;-88
2023/12/28 09:17:34;;;;;;;1.25;1.17;;;11.10;1.00;;;;;;5103756;28;20491;-87
2023/12/28 09:20:01;;;;;;;9.27;1.95;;;11.10;1.00;;;;;;5103412;28;20083;-88
2023/12/28 09:22:27;;;;;;;0.05;0.05;;;11.10;1.00;;;;;;5103111;28;20094;-87
2023/12/28 09:24:52;;;;;;;2.00;0.85;;;11.10;1.00;;;;;;5084958;28;20075;-88
2023/12/28 09:27:18;;;;;;;22.38;2.65;;;11.10;1.00;;;;;;5084851;28;20043;-87
2023/12/28 09:29:44;;;;;;;0.00;0.00;;;11.60;1.00;;;;;;5084958;28;20102;-87
2023/12/28 09:32:09;;;;;;;0.10;0.10;;;11.20;1.00;;;;;;5103187;28;20122;-87
2023/12/28 09:34:35;;;;;;;0.05;0.05;;;11.20;1.00;;;;;;5102642;28;20055;-87
2023/12/28 09:37:01;;;;;;;1.10;0.45;;;11.30;1.00;;;;;;5102435;28;20138;-87
2023/12/28 09:39:27;;;;;;;0.55;0.47;;;11.30;1.00;;;;;;5102641;28;20154;-86
2023/12/28 09:42:01;;;;;;;1.23;0.98;;;11.00;1.00;;;;;;5102876;28;20054;-87
2023/12/28 09:44:28;;;;;;;2.47;1.02;;;10.90;4.50;;;;;;5103212;28;20106;-87
2023/12/28 09:46:55;;;;;;;0.25;0.15;;;10.90;10.50;;;;;;5102455;28;20046;-87
2023/12/28 09:49:21;;;;;;;0.32;0.32;;;11.00;1.00;;;;;;5101567;28;20358;-87
2023/12/28 09:51:47;;;;;;;5.38;0.90;;;11.00;1.00;;;;;;5083866;28;20040;-87
2023/12/28 09:54:13;;;;;;;0.50;0.43;;;11.00;1.00;;;;;;5102882;28;20431;-87
2023/12/28 09:56:40;;;;;;;16.05;2.83;;;11.00;1.00;;;;;;5102919;28;20031;-87
2023/12/28 09:59:07;;;;;;;1.25;0.47;;;11.20;1.00;;;;;;5102208;28;20096;-87
2023/12/28 10:01:34;;;;;;;0.73;0.50;;;11.70;1.00;;;;;;5083226;28;20055;-87
2023/12/28 10:04:02;;;;;;;1.65;1.05;;;11.30;1.00;;;;;;5097665;28;20039;-87
2023/12/28 10:06:28;;;;;;;0.38;0.38;;;11.30;1.00;;;;;;5083841;28;20130;-87
2023/12/28 10:08:55;;;;;;;0.85;0.63;;;11.30;1.00;;;;;;5102050;28;20138;-87
2023/12/28 10:11:21;;;;;;;0.38;0.32;;;11.30;1.00;;;;;;5102590;28;20100;-87
2023/12/28 10:13:50;;;;;;;2.65;0.55;;;11.40;1.00;;;;;;5102038;28;20083;-88
2023/12/28 10:16:16;;;;;;;0.25;0.25;;;11.40;1.00;;;;;;5101670;28;20100;-86
2023/12/28 10:18:42;;;;;;;4.55;1.95;;;11.50;1.00;;;;;;5102404;28;20047;-87
2023/12/28 10:21:08;;;;;;;1.10;0.98;;;12.20;1.00;;;;;;5103017;28;20091;-87
2023/12/28 10:23:34;;;;;;;0.00;0.00;;;11.50;1.00;;;;;;5084244;28;20065;-87
2023/12/28 10:26:00;;;;;;;0.00;0.00;;;11.50;1.00;;;;;;5083879;28;20051;-86
2023/12/28 10:28:26;;;;;;;0.20;0.17;;;11.60;1.00;;;;;;5083510;28;20104;-86
2023/12/28 10:30:58;;;;;;;0.50;0.38;;;11.60;1.00;;;;;;5101985;28;20043;-87
2023/12/28 10:33:23;;;;;;;0.00;0.00;;;11.70;1.00;;;;;;5104381;28;20528;-87
2023/12/28 10:35:50;;;;;;;0.57;0.35;;;11.70;1.00;;;;;;5083467;28;20460;-87
2023/12/28 10:38:17;;;;;;;0.70;0.70;;;12.00;1.00;;;;;;5102136;28;20051;-87
2023/12/28 10:40:44;;;;;;;0.00;0.00;;;11.70;1.00;;;;;;5102471;28;20126;-87
2023/12/28 10:43:14;;;;;;;0.90;0.85;;;11.70;1.00;;;;;;5102139;28;20051;-87
2023/12/28 10:45:40;;;;;;;32.42;2.17;;;11.70;1.00;;;;;;5101996;28;20096;-87
2023/12/28 10:48:10;;;;;;;8.63;2.05;;;11.70;1.00;;;;;;5101710;28;20799;-88
2023/12/28 10:50:39;;;;;;;0.65;0.55;;;11.80;1.00;;;;;;5101914;28;20035;-86
2023/12/28 10:53:17;;;;;;;2.50;0.88;;;11.80;1.00;;;;;;5101533;28;20099;-87
2023/12/28 10:56:01;;;;;;;0.35;0.10;;;11.80;1.00;;;;;;5083690;28;20311;-87
2023/12/28 10:58:42;;;;;;;1.33;1.23;;;11.80;1.00;;;;;;5101296;28;20416;-87
2023/12/28 11:01:10;;;;;;;8.95;1.02;;;11.70;1.00;;;;;;5101401;28;20044;-87
2023/12/28 11:03:41;;;;;;;10.93;0.65;;;11.70;1.00;;;;;;5085801;28;20108;-87
2023/12/28 11:06:07;;;;;;;0.22;0.13;;;11.80;1.00;;;;;;5101794;28;20043;-87
2023/12/28 11:08:35;;;;;;;32.38;1.52;;;11.70;1.00;;;;;;5066729;28;20043;-87
2023/12/28 11:11:03;;;;;;;0.15;0.15;;;11.70;1.00;;;;;;5085186;28;20596;-87
2023/12/28 11:13:32;;;;;;;0.30;0.08;;;11.70;1.00;;;;;;5085607;28;20040;-87
2023/12/28 11:15:59;;;;;;;0.32;0.32;;;11.70;1.00;;;;;;5104315;28;20404;-87
2023/12/28 11:18:26;;;;;;;1.40;0.98;;;11.70;1.00;;;;;;5103727;28;20447;-87
2023/12/28 11:20:52;;;;;;;0.50;0.50;;;11.70;1.00;;;;;;5087223;28;20043;-87
2023/12/28 11:23:18;;;;;;;0.10;0.10;;;11.60;1.00;;;;;;5103446;28;20437;-87
2023/12/28 11:25:43;;;;;;;0.00;0.00;;;11.50;1.00;;;;;;5104187;28;20050;-87
2023/12/28 11:28:10;;;;;;;0.00;0.00;;;12.40;1.00;;;;;;5105227;28;20505;-87
2023/12/28 11:30:36;;;;;;;0.13;0.13;;;11.50;1.00;;;;;;5105667;28;20043;-87
2023/12/28 11:33:06;;;;;;;0.55;0.52;;;11.60;1.00;;;;;;5087204;28;20044;-87
2023/12/28 11:35:37;;;;;;;0.00;0.00;;;11.50;1.00;;;;;;5087936;28;20133;-87
2023/12/28 11:38:06;;;;;;;0.10;0.10;;;12.30;1.00;;;;;;5105534;28;20493;-87
2023/12/28 11:40:39;;;;;;;0.00;0.00;;;11.40;1.00;;;;;;5106514;28;20054;-87
2023/12/28 11:43:18;;;;;;;9.27;0.70;;;11.20;1.00;;;;;;5106646;28;20051;-87
2023/12/28 11:45:49;;;;;;;1.48;0.90;;;11.30;1.00;;;;;;5088080;28;20059;-87
2023/12/28 11:48:26;;;;;;;0.00;0.00;;;11.30;1.00;;;;;;5106296;28;20047;-87
2023/12/28 11:50:57;;;;;;;1.92;1.50;;;11.50;1.00;;;;;;5106386;28;20063;-87
2023/12/28 11:53:24;;;;;;;0.50;0.50;;;11.50;1.00;;;;;;5097843;28;20047;-87
2023/12/28 11:55:50;;;;;;;2.05;1.33;;;11.60;1.00;;;;;;5106159;28;20557;-87
2023/12/28 11:58:19;;;;;;;2.55;0.30;;;11.50;1.00;;;;;;5106266;28;20533;-87
2023/12/28 12:00:45;;;;;;;4.05;0.60;;;11.60;1.00;;;;;;5106405;28;20480;-87
2023/12/28 12:03:13;;;;;;;1.65;0.28;;;11.60;1.00;;;;;;5106095;28;20091;-87
2023/12/28 12:05:40;;;;;;;0.52;0.47;;;11.50;1.00;;;;;;5106046;28;20059;-87
2023/12/28 12:08:08;;;;;;;0.00;0.00;;;11.50;1.00;;;;;;5106354;28;20446;-87
2023/12/28 12:10:34;;;;;;;0.38;0.38;;;11.40;1.00;;;;;;5106112;28;20044;-87
2023/12/28 12:13:00;;;;;;;3.47;1.10;;;11.50;1.00;;;;;;5105962;28;20485;-86
2023/12/28 12:15:26;;;;;;;0.20;0.20;;;11.40;1.00;;;;;;5106048;28;20036;-87
2023/12/28 12:17:51;;;;;;;0.13;0.10;;;11.40;1.00;;;;;;5105927;28;20585;-87
2023/12/28 12:20:17;;;;;;;1.35;1.25;;;11.50;1.00;;;;;;5106014;28;20031;-86
2023/12/28 12:22:43;;;;;;;0.80;0.75;;;11.40;1.00;;;;;;5087408;28;20072;-87
2023/12/28 12:25:09;;;;;;;1.67;0.73;;;11.40;1.00;;;;;;5106533;28;20297;-87
2023/12/28 12:27:38;;;;;;;0.05;0.05;;;11.80;1.00;;;;;;5105273;28;20047;-87
2023/12/28 12:30:04;;;;;;;0.00;0.00;;;11.40;1.00;;;;;;5105584;28;20086;-87
2023/12/28 12:32:31;;;;;;;1.83;1.15;;;11.40;1.00;;;;;;5086844;28;20047;-87
2023/12/28 12:34:57;;;;;;;1.42;1.20;;;11.50;1.00;;;;;;5105398;28;20100;-87
2023/12/28 12:37:23;;;;;;;0.50;0.50;;;11.50;1.00;;;;;;5105156;28;20509;-87
2023/12/28 12:39:50;;;;;;;0.20;0.10;;;11.60;1.00;;;;;;5103984;28;20043;-87
2023/12/28 12:42:16;;;;;;;0.00;0.00;;;11.50;1.00;;;;;;5087333;28;20493;-87
2023/12/28 12:44:42;;;;;;;13.80;1.95;;;11.50;1.00;;;;;;5086749;28;20055;-87
2023/12/28 12:47:08;;;;;;;0.10;0.10;;;11.50;1.00;;;;;;5105093;28;20056;-87
2023/12/28 12:49:33;;;;;;;0.25;0.25;;;11.50;1.00;;;;;;5104938;28;20398;-87
2023/12/28 12:52:00;;;;;;;0.00;0.00;;;11.50;1.00;;;;;;5105156;28;20079;-87